Cochise — WDD8952 — position and weather

sailwx.info

Track history (hours):
 
Tides and Currents Weather Stations Pressure Air Temp Water Temp Dewpoint Dewpoint Depression Visibility Wind Speed Wind Dir Waves Ship Positions

Cochise

Owner: Sause Bros, Coos Bay, OR. More information available from US FCC via Universal Licensing System and Coast Guard Vessel Documentation Center.

Last reported at 2018-Jun-20 02:40 UTC. Time now 2018-Jun-21 08:45 UTC.
Position N 38°17' W 123°25'.

Length 38 m; draft 5.7 m.

Type: Towing. MMSI: 367304990.

Date/timePositionNaut miles runAvg speedWind from/ knotsBaromVisibWave heightAir tempDewpointWater temp
2018-Jun-20 02:40N 38°17' W 123°25'2 7.6
2018-Jun-20 02:25N 38°15' W 123°24'3 7.8
2018-Jun-20 02:00N 38°12' W 123°22'45 8.7
2018-Jun-19 20:49N 37°47' W 122°35'3 8.5
2018-Jun-19 20:30N 37°48' W 122°32'4 8.9
2018-Jun-19 20:00N 37°50' W 122°27'4 8.0
2018-Jun-19 19:30N 37°54' W 122°25'2 3.8
2018-Jun-19 19:00N 37°55' W 122°25'0 0.0
2018-Jun-19 18:30N 37°55' W 122°25'0 0.0
2018-Jun-19 18:00N 37°55' W 122°25'1 0.1
2018-Jun-19 03:31N 37°54' W 122°26'0 0.8
2018-Jun-19 03:28N 37°54' W 122°26'2 5.3
2018-Jun-19 03:00N 37°52' W 122°25'4 7.6
2018-Jun-19 02:30N 37°49' W 122°28'5 9.5
2018-Jun-19 01:59N 37°47' W 122°33'510.1
2018-Jun-19 01:30N 37°46' W 122°39'1210.4
2018-Jun-19 00:20N 37°49' W 122°54'4 9.9
2018-Jun-18 23:59N 37°51' W 122°58'510.0
2018-Jun-18 23:30N 37°54' W 123°03'510.0
2018-Jun-18 23:00N 37°56' W 123°08'510.1
2018-Jun-18 22:30N 37°59' W 123°13'510.7
2018-Jun-18 22:00N 38°04' W 123°18'510.8
2018-Jun-18 21:30N 38°08' W 123°22'611.4
2018-Jun-18 21:00N 38°13' W 123°26'611.1
2018-Jun-18 20:30N 38°18' W 123°29'510.8
2018-Jun-18 20:00N 38°22' W 123°33'610.8
2018-Jun-18 19:28N 38°27' W 123°36'36710.3
2018-Jun-17 07:53N 44°31' W 124°43'410.2
2018-Jun-17 07:29N 44°35' W 124°43'510.4
2018-Jun-17 06:58N 44°40' W 124°42'510.6
2018-Jun-17 06:30N 44°45' W 124°42'1910.7
2018-Jun-17 04:46N 45°03' W 124°38'310.8
2018-Jun-17 04:30N 45°06' W 124°37'510.9
2018-Jun-17 04:00N 45°11' W 124°35'610.8
2018-Jun-17 03:30N 45°17' W 124°33'510.9
2018-Jun-17 03:00N 45°22' W 124°31'611.2
2018-Jun-17 02:30N 45°27' W 124°29'611.3
2018-Jun-17 02:00N 45°33' W 124°27'611.3
2018-Jun-17 01:28N 45°39' W 124°25'511.3
2018-Jun-17 01:00N 45°44' W 124°23'611.2
2018-Jun-17 00:30N 45°49' W 124°22'510.8
2018-Jun-17 00:00N 45°55' W 124°20'510.6
2018-Jun-16 23:30N 45°60' W 124°18'510.8
2018-Jun-16 23:00N 46°05' W 124°16'510.3
2018-Jun-16 22:30N 46°09' W 124°13'5 9.0
2018-Jun-16 22:00N 46°13' W 124°09'4 8.7
2018-Jun-16 21:30N 46°15' W 124°03'4 7.5
2018-Jun-16 21:00N 46°14' W 123°58'4 8.3
2018-Jun-16 20:31N 46°11' W 123°54'4 7.6
2018-Jun-16 20:00N 46°12' W 123°48'611.0
2018-Jun-16 19:28N 46°15' W 123°41'612.4
2018-Jun-16 19:00N 46°16' W 123°32'510.4
2018-Jun-16 18:29N 46°13' W 123°25'611.5
2018-Jun-16 18:00N 46°09' W 123°21'713.1
2018-Jun-16 17:30N 46°11' W 123°12'612.2
2018-Jun-16 17:00N 46°09' W 123°03'612.9
2018-Jun-16 16:30N 46°06' W 122°56'612.1
2018-Jun-16 16:00N 46°00' W 122°51'611.8
2018-Jun-16 15:30N 45°55' W 122°49'611.8
2018-Jun-16 15:01N 45°49' W 122°48'611.6
2018-Jun-16 14:30N 45°43' W 122°46'510.6
2018-Jun-16 14:01N 45°38' W 122°47'5 9.0
2018-Jun-16 13:30N 45°34' W 122°44'2 1.6
2018-Jun-16 12:34N 45°33' W 122°42'0 0.0
2018-Jun-16 12:22N 45°33' W 122°42'0 0.0
2018-Jun-16 11:55N 45°33' W 122°42'0 0.0
2018-Jun-16 11:22N 45°33' W 122°42'0 0.0
2018-Jun-16 10:34N 45°33' W 122°42'0 0.0
2018-Jun-16 10:28N 45°33' W 122°42'0 0.0
2018-Jun-16 09:58N 45°33' W 122°42'0 0.0
2018-Jun-16 09:28N 45°33' W 122°42'0 0.0
2018-Jun-16 08:58N 45°33' W 122°42'0 0.0
2018-Jun-16 08:13N 45°33' W 122°42'0 0.0
2018-Jun-16 07:58N 45°33' W 122°42'0 0.0
2018-Jun-16 07:25N 45°33' W 122°42'0 0.0
2018-Jun-16 06:58N 45°33' W 122°42'0 0.0
2018-Jun-16 06:19N 45°33' W 122°42'0 0.0
2018-Jun-16 05:49N 45°33' W 122°42'0 0.0
2018-Jun-16 05:22N 45°33' W 122°42'0 0.0
2018-Jun-16 04:58N 45°33' W 122°42'0 0.0
2018-Jun-16 04:25N 45°33' W 122°42'0 0.0
2018-Jun-16 03:46N 45°33' W 122°42'0 0.0
2018-Jun-16 03:28N 45°33' W 122°42'0 0.0
2018-Jun-16 02:58N 45°33' W 122°42'0 0.0
2018-Jun-16 01:49N 45°33' W 122°42'0 0.0
2018-Jun-16 01:22N 45°33' W 122°42'0 0.0
2018-Jun-16 00:58N 45°33' W 122°42'0 0.0
2018-Jun-16 00:28N 45°33' W 122°42'0 0.0
2018-Jun-15 23:49N 45°33' W 122°42'0 0.0
2018-Jun-15 23:28N 45°33' W 122°42'0 0.0
2018-Jun-15 22:46N 45°33' W 122°42'0 0.0
2018-Jun-15 22:19N 45°33' W 122°42'0 0.0
2018-Jun-15 21:58N 45°33' W 122°42'0 0.0
2018-Jun-15 21:25N 45°33' W 122°42'0 0.0
2018-Jun-15 20:58N 45°33' W 122°42'0 0.1
2018-Jun-15 20:15N 45°33' W 122°42'0 0.0
2018-Jun-15 19:33N 45°33' W 122°42'0 0.1
2018-Jun-15 19:27N 45°33' W 122°42'0 0.0
2018-Jun-15 18:45N 45°33' W 122°42'0 0.0
2018-Jun-15 18:27N 45°33' W 122°42'0 0.0
2018-Jun-15 17:57N 45°33' W 122°42'0 0.0
2018-Jun-15 17:30N 45°33' W 122°42'0 0.0
2018-Jun-15 16:54N 45°33' W 122°42'0 0.0
2018-Jun-15 16:21N 45°33' W 122°42'0 0.0
2018-Jun-15 15:42N 45°33' W 122°42'0 0.0
2018-Jun-15 15:27N 45°33' W 122°42'0 0.0
2018-Jun-15 15:00N 45°33' W 122°42'0 0.0
2018-Jun-15 14:27N 45°33' W 122°42'0 0.0
2018-Jun-15 13:57N 45°33' W 122°42'0 0.0
2018-Jun-15 13:30N 45°33' W 122°42'0 0.0
2018-Jun-15 12:57N 45°33' W 122°42'0 0.0
2018-Jun-15 12:24N 45°33' W 122°42'0 0.0
2018-Jun-15 11:36N 45°33' W 122°42'0 0.0
2018-Jun-15 11:27N 45°33' W 122°42'0 0.0
2018-Jun-15 10:54N 45°33' W 122°42'0 0.0
2018-Jun-15 10:27N 45°33' W 122°42'0 0.0
2018-Jun-15 09:45N 45°33' W 122°42'0 0.0
2018-Jun-15 09:24N 45°33' W 122°42'0 0.0
2018-Jun-15 09:00N 45°33' W 122°42'0 0.0
2018-Jun-15 08:18N 45°33' W 122°42'0 0.0
2018-Jun-15 07:48N 45°33' W 122°42'0 0.0
2018-Jun-15 07:27N 45°33' W 122°42'0 0.0
2018-Jun-15 06:21N 45°33' W 122°42'0 0.0
2018-Jun-15 06:00N 45°33' W 122°42'0 0.0
2018-Jun-15 05:27N 45°33' W 122°42'0 0.0
2018-Jun-15 04:51N 45°33' W 122°42'0 0.0
2018-Jun-15 04:24N 45°33' W 122°42'0 0.0
2018-Jun-15 03:54N 45°33' W 122°42'0 0.0
2018-Jun-15 03:09N 45°33' W 122°42'0 0.0
2018-Jun-15 03:00N 45°33' W 122°42'0 0.0
2018-Jun-15 02:27N 45°33' W 122°42'0 0.0
2018-Jun-15 02:00N 45°33' W 122°42'0 0.0
2018-Jun-15 01:21N 45°33' W 122°42'0 0.0
2018-Jun-15 00:57N 45°33' W 122°42'0 0.0
2018-Jun-15 00:27N 45°33' W 122°42'0 0.0
2018-Jun-14 23:57N 45°33' W 122°42'0 0.0
2018-Jun-14 23:21N 45°33' W 122°42'0 0.0
2018-Jun-14 22:57N 45°33' W 122°42'0 0.0
2018-Jun-14 22:21N 45°33' W 122°42'0 0.0
2018-Jun-14 22:00N 45°33' W 122°42'0 0.0
2018-Jun-14 21:27N 45°33' W 122°42'0 0.0
2018-Jun-14 20:57N 45°33' W 122°42'0 0.0
2018-Jun-14 20:30N 45°33' W 122°42'0 0.0
2018-Jun-14 19:57N 45°33' W 122°42'0 0.0
2018-Jun-14 19:27N 45°33' W 122°42'0 0.0
2018-Jun-14 19:00N 45°33' W 122°42'0 0.0
2018-Jun-14 18:27N 45°33' W 122°42'0 0.0
2018-Jun-14 18:00N 45°33' W 122°42'0 0.0
2018-Jun-14 17:30N 45°33' W 122°42'0 0.0
2018-Jun-14 16:57N 45°33' W 122°42'0 0.0
2018-Jun-14 16:27N 45°33' W 122°42'0 0.0
2018-Jun-14 15:57N 45°33' W 122°42'0 0.0
2018-Jun-14 15:27N 45°33' W 122°42'0 0.0
2018-Jun-14 14:57N 45°33' W 122°42'0 0.0
2018-Jun-14 14:21N 45°33' W 122°42'0 0.0
2018-Jun-14 13:54N 45°33' W 122°42'0 0.0
2018-Jun-14 13:24N 45°33' W 122°42'0 0.0
2018-Jun-14 12:57N 45°33' W 122°42'0 0.0
2018-Jun-14 12:30N 45°33' W 122°42'0 0.0
2018-Jun-14 12:00N 45°33' W 122°42'0 0.0
2018-Jun-14 11:30N 45°33' W 122°42'0 0.0
2018-Jun-14 10:45N 45°33' W 122°42'0 0.0
2018-Jun-14 10:30N 45°33' W 122°42'0 0.0
2018-Jun-14 09:45N 45°33' W 122°42'0 0.0
2018-Jun-14 09:30N 45°33' W 122°42'0 0.0
2018-Jun-14 08:45N 45°33' W 122°42'0 0.0
2018-Jun-14 08:27N 45°33' W 122°42'0 0.0
2018-Jun-14 08:00N 45°33' W 122°42'0 0.0
2018-Jun-14 07:27N 45°33' W 122°42'0 0.0
2018-Jun-14 06:36N 45°33' W 122°42'0 0.0
2018-Jun-14 06:27N 45°33' W 122°42'0 0.0
2018-Jun-14 06:00N 45°33' W 122°42'0 0.0
2018-Jun-14 05:21N 45°33' W 122°42'0 0.0
2018-Jun-14 05:00N 45°33' W 122°42'0 0.0
2018-Jun-14 04:24N 45°33' W 122°42'0 0.0
2018-Jun-14 03:42N 45°33' W 122°42'0 0.0
2018-Jun-14 03:15N 45°33' W 122°42'0 0.0
2018-Jun-14 02:48N 45°33' W 122°42'0 0.0
2018-Jun-14 02:21N 45°33' W 122°42'0 0.0
2018-Jun-14 01:27N 45°33' W 122°42'0 0.0
2018-Jun-14 01:00N 45°33' W 122°42'0 0.0
2018-Jun-14 00:30N 45°33' W 122°42'0 0.0
2018-Jun-14 00:00N 45°33' W 122°42'0 0.0
2018-Jun-13 23:27N 45°33' W 122°42'0 0.0
2018-Jun-13 23:00N 45°33' W 122°42'0 0.0
2018-Jun-13 22:27N 45°33' W 122°42'0 0.0
2018-Jun-13 21:57N 45°33' W 122°42'0 0.0
2018-Jun-13 21:27N 45°33' W 122°42'0 0.0
2018-Jun-13 20:57N 45°33' W 122°42'0 0.0
2018-Jun-13 20:30N 45°33' W 122°42'0 0.0
2018-Jun-13 20:00N 45°33' W 122°42'0 0.0
2018-Jun-13 19:27N 45°33' W 122°42'0 0.0
2018-Jun-13 18:57N 45°33' W 122°42'0 0.0
2018-Jun-13 18:27N 45°33' W 122°42'0 0.0
2018-Jun-13 18:00N 45°33' W 122°42'0 0.0
2018-Jun-13 17:27N 45°33' W 122°42'0 0.0
2018-Jun-13 16:51N 45°33' W 122°42'0 0.0
2018-Jun-13 16:27N 45°33' W 122°42'0 0.0
2018-Jun-13 15:57N 45°33' W 122°42'0 0.0
2018-Jun-13 15:09N 45°33' W 122°42'0 0.0
2018-Jun-13 14:57N 45°33' W 122°42'0 0.0
2018-Jun-13 14:24N 45°33' W 122°42'0 0.0
2018-Jun-13 13:57N 45°33' W 122°42'0 0.0
2018-Jun-13 13:30N 45°33' W 122°42'0 0.0
2018-Jun-13 12:57N 45°33' W 122°42'0 0.0
2018-Jun-13 12:27N 45°33' W 122°42'0 0.0
2018-Jun-13 11:57N 45°33' W 122°42'0 0.0
2018-Jun-13 11:30N 45°33' W 122°42'0 0.0
2018-Jun-13 10:54N 45°33' W 122°42'0 0.0
2018-Jun-13 10:27N 45°33' W 122°42'0 0.0
2018-Jun-13 09:57N 45°33' W 122°42'0 0.0
2018-Jun-13 09:30N 45°33' W 122°42'0 0.0
2018-Jun-13 08:57N 45°33' W 122°42'0 0.0
2018-Jun-13 08:21N 45°33' W 122°42'0 0.0
2018-Jun-13 08:00N 45°33' W 122°42'0 0.0
2018-Jun-13 07:24N 45°33' W 122°42'0 0.0
2018-Jun-13 06:54N 45°33' W 122°42'0 0.0
2018-Jun-13 06:21N 45°33' W 122°42'0 0.0
2018-Jun-13 06:00N 45°33' W 122°42'0 0.0
2018-Jun-13 05:27N 45°33' W 122°42'0 0.0
2018-Jun-13 04:51N 45°33' W 122°42'0 0.0
2018-Jun-13 04:30N 45°33' W 122°42'0 0.0
2018-Jun-13 03:39N 45°33' W 122°42'0 0.0
2018-Jun-13 03:27N 45°33' W 122°42'0 0.0
2018-Jun-13 02:51N 45°33' W 122°42'0 0.0
2018-Jun-13 01:57N 45°33' W 122°42'0 0.0
2018-Jun-13 01:27N 45°33' W 122°42'0 0.0
2018-Jun-13 01:00N 45°33' W 122°42'0 0.0
2018-Jun-13 00:27N 45°33' W 122°42'0 0.0
2018-Jun-13 00:00N 45°33' W 122°42'0 0.0
2018-Jun-12 23:30N 45°33' W 122°42'0 0.0
2018-Jun-12 22:57N 45°33' W 122°42'0 0.0
2018-Jun-12 22:30N 45°33' W 122°42'0 0.0
2018-Jun-12 21:54N 45°33' W 122°42'0 0.0
2018-Jun-12 21:27N 45°33' W 122°42'0 0.0
2018-Jun-12 21:00N 45°33' W 122°42'0 0.0
2018-Jun-12 20:27N 45°33' W 122°42'0 0.0
2018-Jun-12 19:57N 45°33' W 122°42'0 0.0
2018-Jun-12 19:27N 45°33' W 122°42'0 0.0
2018-Jun-12 18:51N 45°33' W 122°42'0 0.0
2018-Jun-12 18:30N 45°33' W 122°42'0 0.0
2018-Jun-12 17:57N 45°33' W 122°42'0 0.0
2018-Jun-12 17:27N 45°33' W 122°42'0 0.0
2018-Jun-12 16:57N 45°33' W 122°42'0 0.0
2018-Jun-12 16:30N 45°33' W 122°42'0 0.0
2018-Jun-12 16:00N 45°33' W 122°42'0 0.0
2018-Jun-12 15:21N 45°33' W 122°42'0 0.0
2018-Jun-12 15:00N 45°33' W 122°42'0 0.0
2018-Jun-12 14:29N 45°33' W 122°42'0 0.0
2018-Jun-12 14:00N 45°33' W 122°42'0 0.0
2018-Jun-12 13:31N 45°33' W 122°42'0 0.0
2018-Jun-12 13:00N 45°33' W 122°42'0 0.0
2018-Jun-12 12:30N 45°33' W 122°42'0 0.0
2018-Jun-12 11:58N 45°33' W 122°42'0 0.0
2018-Jun-12 11:28N 45°33' W 122°42'0 0.0
2018-Jun-12 11:01N 45°33' W 122°42'0 0.0
2018-Jun-12 10:31N 45°33' W 122°42'0 0.0
2018-Jun-12 10:00N 45°33' W 122°42'0 0.0
2018-Jun-12 09:30N 45°33' W 122°42'0 0.0
2018-Jun-12 09:00N 45°33' W 122°42'0 0.0
2018-Jun-12 08:30N 45°33' W 122°42'0 0.0
2018-Jun-12 08:00N 45°33' W 122°42'0 0.0
2018-Jun-12 07:30N 45°33' W 122°42'0 0.0
2018-Jun-12 06:55N 45°33' W 122°42'0 0.0
2018-Jun-12 06:30N 45°33' W 122°42'0 0.0
2018-Jun-12 06:00N 45°33' W 122°42'0 0.0
2018-Jun-12 05:30N 45°33' W 122°42'0 0.0
2018-Jun-12 05:00N 45°33' W 122°42'0 0.1
2018-Jun-12 04:30N 45°33' W 122°42'0 0.1
2018-Jun-12 04:00N 45°33' W 122°42'2 2.1
2018-Jun-12 03:16N 45°34' W 122°44'0 0.0
2018-Jun-12 03:00N 45°34' W 122°44'1 0.8
2018-Jun-12 02:20N 45°34' W 122°43'1 3.1
2018-Jun-12 01:58N 45°33' W 122°42'0 0.0
2018-Jun-12 01:29N 45°33' W 122°42'0 0.0
2018-Jun-12 00:59N 45°33' W 122°42'0 0.0
2018-Jun-12 00:20N 45°33' W 122°42'0 0.0
2018-Jun-11 23:50N 45°33' W 122°42'0 0.0
2018-Jun-11 23:29N 45°33' W 122°42'0 0.0
2018-Jun-11 22:47N 45°33' W 122°42'0 0.0
2018-Jun-11 22:20N 45°33' W 122°42'0 0.0
2018-Jun-11 21:50N 45°33' W 122°42'0 0.0
2018-Jun-11 21:26N 45°33' W 122°42'0 0.0
2018-Jun-11 20:50N 45°33' W 122°42'0 0.0
2018-Jun-11 20:20N 45°33' W 122°42'0 0.0
2018-Jun-11 19:53N 45°33' W 122°42'0 0.0
2018-Jun-11 19:23N 45°33' W 122°42'0 0.0
2018-Jun-11 18:08N 45°33' W 122°42'0 0.0
2018-Jun-11 17:35N 45°33' W 122°42'0 0.0
2018-Jun-11 17:29N 45°33' W 122°42'0 0.0
2018-Jun-11 16:47N 45°33' W 122°42'0 0.0
2018-Jun-11 16:29N 45°33' W 122°42'0 0.0
2018-Jun-11 15:23N 45°33' W 122°42'0 0.0
2018-Jun-11 14:53N 45°33' W 122°42'0 0.0
2018-Jun-11 14:20N 45°33' W 122°42'0 0.0
2018-Jun-11 13:59N 45°33' W 122°42'0 0.0
2018-Jun-11 13:31N 45°33' W 122°42'2 3.3
2018-Jun-11 13:00N 45°34' W 122°44'0 0.0
2018-Jun-11 12:30N 45°34' W 122°44'1 1.0
2018-Jun-11 11:56N 45°34' W 122°45'2 5.6
2018-Jun-11 11:30N 45°36' W 122°47'3 6.3
2018-Jun-11 11:00N 45°39' W 122°46'7 7.9
2018-Jun-11 10:04N 45°47' W 122°46'1 8.1
2018-Jun-11 10:00N 45°47' W 122°47'5 7.7
2018-Jun-11 09:20N 45°52' W 122°47'3 8.1
2018-Jun-11 09:00N 45°55' W 122°49'4 7.9
2018-Jun-11 08:30N 45°59' W 122°50'4 8.3
2018-Jun-11 08:00N 46°02' W 122°53'4 7.8
2018-Jun-11 07:30N 46°06' W 122°56'4 8.4
2018-Jun-11 06:59N 46°08' W 123°01'4 8.4
2018-Jun-11 06:30N 46°10' W 123°06'4 8.0
2018-Jun-11 06:00N 46°11' W 123°12'5 8.6
2018-Jun-11 05:23N 46°09' W 123°19'614.5
2018-Jun-11 04:59N 46°11' W 123°26'3 4.6
2018-Jun-11 04:17N 46°15' W 123°26'3 8.9
2018-Jun-11 04:00N 46°16' W 123°29'5 9.2
2018-Jun-11 03:30N 46°15' W 123°35'5 9.1
2018-Jun-11 03:00N 46°15' W 123°42'5 9.6
2018-Jun-11 02:30N 46°12' W 123°48'5 9.3
2018-Jun-11 02:00N 46°11' W 123°55'4 8.8
2018-Jun-11 01:31N 46°14' W 123°59'4 6.2
2018-Jun-11 00:55N 46°15' W 124°04'3 5.6
2018-Jun-11 00:20N 46°13' W 124°08'2 6.9
2018-Jun-11 00:01N 46°12' W 124°11'3 6.9
2018-Jun-10 23:31N 46°10' W 124°15'3 6.9
2018-Jun-10 23:01N 46°07' W 124°18'3 6.7
2018-Jun-10 22:31N 46°05' W 124°21'3 6.5
2018-Jun-10 22:00N 46°02' W 124°24'4 6.6
2018-Jun-10 21:23N 45°59' W 124°27'3 7.1
2018-Jun-10 21:01N 45°57' W 124°30'4 7.4
2018-Jun-10 20:31N 45°54' W 124°32'4 7.1
2018-Jun-10 20:00N 45°50' W 124°33'4 7.3
2018-Jun-10 19:30N 45°46' W 124°34'4 7.4
2018-Jun-10 18:59N 45°43' W 124°34'3 6.6
2018-Jun-10 18:30N 45°39' W 124°35'3 6.8
2018-Jun-10 17:59N 45°36' W 124°35'  
Track history (hours):
 
Tides and Currents Weather Stations Pressure Air Temp Water Temp Dewpoint Dewpoint Depression Visibility Wind Speed Wind Dir Waves Ship Positions

Cochise

Owner: Sause Bros, Coos Bay, OR. More information available from US FCC via Universal Licensing System and Coast Guard Vessel Documentation Center.

Last reported at 2018-Jun-20 02:40 UTC. Time now 2018-Jun-21 08:45 UTC.
Position N 38°17' W 123°25'.

Length 38 m; draft 5.7 m.

Type: Towing. MMSI: 367304990.

Date/timePositionNaut miles runAvg speedWind from/ knotsBaromVisibWave heightAir tempDewpointWater temp
2018-Jun-20 02:40N 38°17' W 123°25'2 7.6
2018-Jun-20 02:25N 38°15' W 123°24'3 7.8
2018-Jun-20 02:00N 38°12' W 123°22'45 8.7
2018-Jun-19 20:49N 37°47' W 122°35'3 8.5
2018-Jun-19 20:30N 37°48' W 122°32'4 8.9
2018-Jun-19 20:00N 37°50' W 122°27'4 8.0
2018-Jun-19 19:30N 37°54' W 122°25'2 3.8
2018-Jun-19 19:00N 37°55' W 122°25'0 0.0
2018-Jun-19 18:30N 37°55' W 122°25'0 0.0
2018-Jun-19 18:00N 37°55' W 122°25'1 0.1
2018-Jun-19 03:31N 37°54' W 122°26'0 0.8
2018-Jun-19 03:28N 37°54' W 122°26'2 5.3
2018-Jun-19 03:00N 37°52' W 122°25'4 7.6
2018-Jun-19 02:30N 37°49' W 122°28'5 9.5
2018-Jun-19 01:59N 37°47' W 122°33'510.1
2018-Jun-19 01:30N 37°46' W 122°39'1210.4
2018-Jun-19 00:20N 37°49' W 122°54'4 9.9
2018-Jun-18 23:59N 37°51' W 122°58'510.0
2018-Jun-18 23:30N 37°54' W 123°03'510.0
2018-Jun-18 23:00N 37°56' W 123°08'510.1
2018-Jun-18 22:30N 37°59' W 123°13'510.7
2018-Jun-18 22:00N 38°04' W 123°18'510.8
2018-Jun-18 21:30N 38°08' W 123°22'611.4
2018-Jun-18 21:00N 38°13' W 123°26'611.1
2018-Jun-18 20:30N 38°18' W 123°29'510.8
2018-Jun-18 20:00N 38°22' W 123°33'610.8
2018-Jun-18 19:28N 38°27' W 123°36'36710.3
2018-Jun-17 07:53N 44°31' W 124°43'410.2
2018-Jun-17 07:29N 44°35' W 124°43'510.4
2018-Jun-17 06:58N 44°40' W 124°42'510.6
2018-Jun-17 06:30N 44°45' W 124°42'1910.7
2018-Jun-17 04:46N 45°03' W 124°38'310.8
2018-Jun-17 04:30N 45°06' W 124°37'510.9
2018-Jun-17 04:00N 45°11' W 124°35'610.8
2018-Jun-17 03:30N 45°17' W 124°33'510.9
2018-Jun-17 03:00N 45°22' W 124°31'611.2
2018-Jun-17 02:30N 45°27' W 124°29'611.3
2018-Jun-17 02:00N 45°33' W 124°27'611.3
2018-Jun-17 01:28N 45°39' W 124°25'511.3
2018-Jun-17 01:00N 45°44' W 124°23'611.2
2018-Jun-17 00:30N 45°49' W 124°22'510.8
2018-Jun-17 00:00N 45°55' W 124°20'510.6
2018-Jun-16 23:30N 45°60' W 124°18'510.8
2018-Jun-16 23:00N 46°05' W 124°16'510.3
2018-Jun-16 22:30N 46°09' W 124°13'5 9.0
2018-Jun-16 22:00N 46°13' W 124°09'4 8.7
2018-Jun-16 21:30N 46°15' W 124°03'4 7.5
2018-Jun-16 21:00N 46°14' W 123°58'4 8.3
2018-Jun-16 20:31N 46°11' W 123°54'4 7.6
2018-Jun-16 20:00N 46°12' W 123°48'611.0
2018-Jun-16 19:28N 46°15' W 123°41'612.4
2018-Jun-16 19:00N 46°16' W 123°32'510.4
2018-Jun-16 18:29N 46°13' W 123°25'611.5
2018-Jun-16 18:00N 46°09' W 123°21'713.1
2018-Jun-16 17:30N 46°11' W 123°12'612.2
2018-Jun-16 17:00N 46°09' W 123°03'612.9
2018-Jun-16 16:30N 46°06' W 122°56'612.1
2018-Jun-16 16:00N 46°00' W 122°51'611.8
2018-Jun-16 15:30N 45°55' W 122°49'611.8
2018-Jun-16 15:01N 45°49' W 122°48'611.6
2018-Jun-16 14:30N 45°43' W 122°46'510.6
2018-Jun-16 14:01N 45°38' W 122°47'5 9.0
2018-Jun-16 13:30N 45°34' W 122°44'2 1.6
2018-Jun-16 12:34N 45°33' W 122°42'0 0.0
2018-Jun-16 12:22N 45°33' W 122°42'0 0.0
2018-Jun-16 11:55N 45°33' W 122°42'0 0.0
2018-Jun-16 11:22N 45°33' W 122°42'0 0.0
2018-Jun-16 10:34N 45°33' W 122°42'0 0.0
2018-Jun-16 10:28N 45°33' W 122°42'0 0.0
2018-Jun-16 09:58N 45°33' W 122°42'0 0.0
2018-Jun-16 09:28N 45°33' W 122°42'0 0.0
2018-Jun-16 08:58N 45°33' W 122°42'0 0.0
2018-Jun-16 08:13N 45°33' W 122°42'0 0.0
2018-Jun-16 07:58N 45°33' W 122°42'0 0.0
2018-Jun-16 07:25N 45°33' W 122°42'0 0.0
2018-Jun-16 06:58N 45°33' W 122°42'0 0.0
2018-Jun-16 06:19N 45°33' W 122°42'0 0.0
2018-Jun-16 05:49N 45°33' W 122°42'0 0.0
2018-Jun-16 05:22N 45°33' W 122°42'0 0.0
2018-Jun-16 04:58N 45°33' W 122°42'0 0.0
2018-Jun-16 04:25N 45°33' W 122°42'0 0.0
2018-Jun-16 03:46N 45°33' W 122°42'0 0.0
2018-Jun-16 03:28N 45°33' W 122°42'0 0.0
2018-Jun-16 02:58N 45°33' W 122°42'0 0.0
2018-Jun-16 01:49N 45°33' W 122°42'0 0.0
2018-Jun-16 01:22N 45°33' W 122°42'0 0.0
2018-Jun-16 00:58N 45°33' W 122°42'0 0.0
2018-Jun-16 00:28N 45°33' W 122°42'0 0.0
2018-Jun-15 23:49N 45°33' W 122°42'0 0.0
2018-Jun-15 23:28N 45°33' W 122°42'0 0.0
2018-Jun-15 22:46N 45°33' W 122°42'0 0.0
2018-Jun-15 22:19N 45°33' W 122°42'0 0.0
2018-Jun-15 21:58N 45°33' W 122°42'0 0.0
2018-Jun-15 21:25N 45°33' W 122°42'0 0.0
2018-Jun-15 20:58N 45°33' W 122°42'0 0.1
2018-Jun-15 20:15N 45°33' W 122°42'0 0.0
2018-Jun-15 19:33N 45°33' W 122°42'0 0.1
2018-Jun-15 19:27N 45°33' W 122°42'0 0.0
2018-Jun-15 18:45N 45°33' W 122°42'0 0.0
2018-Jun-15 18:27N 45°33' W 122°42'0 0.0
2018-Jun-15 17:57N 45°33' W 122°42'0 0.0
2018-Jun-15 17:30N 45°33' W 122°42'0 0.0
2018-Jun-15 16:54N 45°33' W 122°42'0 0.0
2018-Jun-15 16:21N 45°33' W 122°42'0 0.0
2018-Jun-15 15:42N 45°33' W 122°42'0 0.0
2018-Jun-15 15:27N 45°33' W 122°42'0 0.0
2018-Jun-15 15:00N 45°33' W 122°42'0 0.0
2018-Jun-15 14:27N 45°33' W 122°42'0 0.0
2018-Jun-15 13:57N 45°33' W 122°42'0 0.0
2018-Jun-15 13:30N 45°33' W 122°42'0 0.0
2018-Jun-15 12:57N 45°33' W 122°42'0 0.0
2018-Jun-15 12:24N 45°33' W 122°42'0 0.0
2018-Jun-15 11:36N 45°33' W 122°42'0 0.0
2018-Jun-15 11:27N 45°33' W 122°42'0 0.0
2018-Jun-15 10:54N 45°33' W 122°42'0 0.0
2018-Jun-15 10:27N 45°33' W 122°42'0 0.0
2018-Jun-15 09:45N 45°33' W 122°42'0 0.0
2018-Jun-15 09:24N 45°33' W 122°42'0 0.0
2018-Jun-15 09:00N 45°33' W 122°42'0 0.0
2018-Jun-15 08:18N 45°33' W 122°42'0 0.0
2018-Jun-15 07:48N 45°33' W 122°42'0 0.0
2018-Jun-15 07:27N 45°33' W 122°42'0 0.0
2018-Jun-15 06:21N 45°33' W 122°42'0 0.0
2018-Jun-15 06:00N 45°33' W 122°42'0 0.0
2018-Jun-15 05:27N 45°33' W 122°42'0 0.0
2018-Jun-15 04:51N 45°33' W 122°42'0 0.0
2018-Jun-15 04:24N 45°33' W 122°42'0 0.0
2018-Jun-15 03:54N 45°33' W 122°42'0 0.0
2018-Jun-15 03:09N 45°33' W 122°42'0 0.0
2018-Jun-15 03:00N 45°33' W 122°42'0 0.0
2018-Jun-15 02:27N 45°33' W 122°42'0 0.0
2018-Jun-15 02:00N 45°33' W 122°42'0 0.0
2018-Jun-15 01:21N 45°33' W 122°42'0 0.0
2018-Jun-15 00:57N 45°33' W 122°42'0 0.0
2018-Jun-15 00:27N 45°33' W 122°42'0 0.0
2018-Jun-14 23:57N 45°33' W 122°42'0 0.0
2018-Jun-14 23:21N 45°33' W 122°42'0 0.0
2018-Jun-14 22:57N 45°33' W 122°42'0 0.0
2018-Jun-14 22:21N 45°33' W 122°42'0 0.0
2018-Jun-14 22:00N 45°33' W 122°42'0 0.0
2018-Jun-14 21:27N 45°33' W 122°42'0 0.0
2018-Jun-14 20:57N 45°33' W 122°42'0 0.0
2018-Jun-14 20:30N 45°33' W 122°42'0 0.0
2018-Jun-14 19:57N 45°33' W 122°42'0 0.0
2018-Jun-14 19:27N 45°33' W 122°42'0 0.0
2018-Jun-14 19:00N 45°33' W 122°42'0 0.0
2018-Jun-14 18:27N 45°33' W 122°42'0 0.0
2018-Jun-14 18:00N 45°33' W 122°42'0 0.0
2018-Jun-14 17:30N 45°33' W 122°42'0 0.0
2018-Jun-14 16:57N 45°33' W 122°42'0 0.0
2018-Jun-14 16:27N 45°33' W 122°42'0 0.0
2018-Jun-14 15:57N 45°33' W 122°42'0 0.0
2018-Jun-14 15:27N 45°33' W 122°42'0 0.0
2018-Jun-14 14:57N 45°33' W 122°42'0 0.0
2018-Jun-14 14:21N 45°33' W 122°42'0 0.0
2018-Jun-14 13:54N 45°33' W 122°42'0 0.0
2018-Jun-14 13:24N 45°33' W 122°42'0 0.0
2018-Jun-14 12:57N 45°33' W 122°42'0 0.0
2018-Jun-14 12:30N 45°33' W 122°42'0 0.0
2018-Jun-14 12:00N 45°33' W 122°42'0 0.0
2018-Jun-14 11:30N 45°33' W 122°42'0 0.0
2018-Jun-14 10:45N 45°33' W 122°42'0 0.0
2018-Jun-14 10:30N 45°33' W 122°42'0 0.0
2018-Jun-14 09:45N 45°33' W 122°42'0 0.0
2018-Jun-14 09:30N 45°33' W 122°42'0 0.0
2018-Jun-14 08:45N 45°33' W 122°42'0 0.0
2018-Jun-14 08:27N 45°33' W 122°42'0 0.0
2018-Jun-14 08:00N 45°33' W 122°42'0 0.0
2018-Jun-14 07:27N 45°33' W 122°42'0 0.0
2018-Jun-14 06:36N 45°33' W 122°42'0 0.0
2018-Jun-14 06:27N 45°33' W 122°42'0 0.0
2018-Jun-14 06:00N 45°33' W 122°42'0 0.0
2018-Jun-14 05:21N 45°33' W 122°42'0 0.0
2018-Jun-14 05:00N 45°33' W 122°42'0 0.0
2018-Jun-14 04:24N 45°33' W 122°42'0 0.0
2018-Jun-14 03:42N 45°33' W 122°42'0 0.0
2018-Jun-14 03:15N 45°33' W 122°42'0 0.0
2018-Jun-14 02:48N 45°33' W 122°42'0 0.0
2018-Jun-14 02:21N 45°33' W 122°42'0 0.0
2018-Jun-14 01:27N 45°33' W 122°42'0 0.0
2018-Jun-14 01:00N 45°33' W 122°42'0 0.0
2018-Jun-14 00:30N 45°33' W 122°42'0 0.0
2018-Jun-14 00:00N 45°33' W 122°42'0 0.0
2018-Jun-13 23:27N 45°33' W 122°42'0 0.0
2018-Jun-13 23:00N 45°33' W 122°42'0 0.0
2018-Jun-13 22:27N 45°33' W 122°42'0 0.0
2018-Jun-13 21:57N 45°33' W 122°42'0 0.0
2018-Jun-13 21:27N 45°33' W 122°42'0 0.0
2018-Jun-13 20:57N 45°33' W 122°42'0 0.0
2018-Jun-13 20:30N 45°33' W 122°42'0 0.0
2018-Jun-13 20:00N 45°33' W 122°42'0 0.0
2018-Jun-13 19:27N 45°33' W 122°42'0 0.0
2018-Jun-13 18:57N 45°33' W 122°42'0 0.0
2018-Jun-13 18:27N 45°33' W 122°42'0 0.0
2018-Jun-13 18:00N 45°33' W 122°42'0 0.0
2018-Jun-13 17:27N 45°33' W 122°42'0 0.0
2018-Jun-13 16:51N 45°33' W 122°42'0 0.0
2018-Jun-13 16:27N 45°33' W 122°42'0 0.0
2018-Jun-13 15:57N 45°33' W 122°42'0 0.0
2018-Jun-13 15:09N 45°33' W 122°42'0 0.0
2018-Jun-13 14:57N 45°33' W 122°42'0 0.0
2018-Jun-13 14:24N 45°33' W 122°42'0 0.0
2018-Jun-13 13:57N 45°33' W 122°42'0 0.0
2018-Jun-13 13:30N 45°33' W 122°42'0 0.0
2018-Jun-13 12:57N 45°33' W 122°42'0 0.0
2018-Jun-13 12:27N 45°33' W 122°42'0 0.0
2018-Jun-13 11:57N 45°33' W 122°42'0 0.0
2018-Jun-13 11:30N 45°33' W 122°42'0 0.0
2018-Jun-13 10:54N 45°33' W 122°42'0 0.0
2018-Jun-13 10:27N 45°33' W 122°42'0 0.0
2018-Jun-13 09:57N 45°33' W 122°42'0 0.0
2018-Jun-13 09:30N 45°33' W 122°42'0 0.0
2018-Jun-13 08:57N 45°33' W 122°42'0 0.0
2018-Jun-13 08:21N 45°33' W 122°42'0 0.0
2018-Jun-13 08:00N 45°33' W 122°42'0 0.0
2018-Jun-13 07:24N 45°33' W 122°42'0 0.0
2018-Jun-13 06:54N 45°33' W 122°42'0 0.0
2018-Jun-13 06:21N 45°33' W 122°42'0 0.0
2018-Jun-13 06:00N 45°33' W 122°42'0 0.0
2018-Jun-13 05:27N 45°33' W 122°42'0 0.0
2018-Jun-13 04:51N 45°33' W 122°42'0 0.0
2018-Jun-13 04:30N 45°33' W 122°42'0 0.0
2018-Jun-13 03:39N 45°33' W 122°42'0 0.0
2018-Jun-13 03:27N 45°33' W 122°42'0 0.0
2018-Jun-13 02:51N 45°33' W 122°42'0 0.0
2018-Jun-13 01:57N 45°33' W 122°42'0 0.0
2018-Jun-13 01:27N 45°33' W 122°42'0 0.0
2018-Jun-13 01:00N 45°33' W 122°42'0 0.0
2018-Jun-13 00:27N 45°33' W 122°42'0 0.0
2018-Jun-13 00:00N 45°33' W 122°42'0 0.0
2018-Jun-12 23:30N 45°33' W 122°42'0 0.0
2018-Jun-12 22:57N 45°33' W 122°42'0 0.0
2018-Jun-12 22:30N 45°33' W 122°42'0 0.0
2018-Jun-12 21:54N 45°33' W 122°42'0 0.0
2018-Jun-12 21:27N 45°33' W 122°42'0 0.0
2018-Jun-12 21:00N 45°33' W 122°42'0 0.0
2018-Jun-12 20:27N 45°33' W 122°42'0 0.0
2018-Jun-12 19:57N 45°33' W 122°42'0 0.0
2018-Jun-12 19:27N 45°33' W 122°42'0 0.0
2018-Jun-12 18:51N 45°33' W 122°42'0 0.0
2018-Jun-12 18:30N 45°33' W 122°42'0 0.0
2018-Jun-12 17:57N 45°33' W 122°42'0 0.0
2018-Jun-12 17:27N 45°33' W 122°42'0 0.0
2018-Jun-12 16:57N 45°33' W 122°42'0 0.0
2018-Jun-12 16:30N 45°33' W 122°42'0 0.0
2018-Jun-12 16:00N 45°33' W 122°42'0 0.0
2018-Jun-12 15:21N 45°33' W 122°42'0 0.0
2018-Jun-12 15:00N 45°33' W 122°42'0 0.0
2018-Jun-12 14:29N 45°33' W 122°42'0 0.0
2018-Jun-12 14:00N 45°33' W 122°42'0 0.0
2018-Jun-12 13:31N 45°33' W 122°42'0 0.0
2018-Jun-12 13:00N 45°33' W 122°42'0 0.0
2018-Jun-12 12:30N 45°33' W 122°42'0 0.0
2018-Jun-12 11:58N 45°33' W 122°42'0 0.0
2018-Jun-12 11:28N 45°33' W 122°42'0 0.0
2018-Jun-12 11:01N 45°33' W 122°42'0 0.0
2018-Jun-12 10:31N 45°33' W 122°42'0 0.0
2018-Jun-12 10:00N 45°33' W 122°42'0 0.0
2018-Jun-12 09:30N 45°33' W 122°42'0 0.0
2018-Jun-12 09:00N 45°33' W 122°42'0 0.0
2018-Jun-12 08:30N 45°33' W 122°42'0 0.0
2018-Jun-12 08:00N 45°33' W 122°42'0 0.0
2018-Jun-12 07:30N 45°33' W 122°42'0 0.0
2018-Jun-12 06:55N 45°33' W 122°42'0 0.0
2018-Jun-12 06:30N 45°33' W 122°42'0 0.0
2018-Jun-12 06:00N 45°33' W 122°42'0 0.0
2018-Jun-12 05:30N 45°33' W 122°42'0 0.0
2018-Jun-12 05:00N 45°33' W 122°42'0 0.1
2018-Jun-12 04:30N 45°33' W 122°42'0 0.1
2018-Jun-12 04:00N 45°33' W 122°42'2 2.1
2018-Jun-12 03:16N 45°34' W 122°44'0 0.0
2018-Jun-12 03:00N 45°34' W 122°44'1 0.8
2018-Jun-12 02:20N 45°34' W 122°43'1 3.1
2018-Jun-12 01:58N 45°33' W 122°42'0 0.0
2018-Jun-12 01:29N 45°33' W 122°42'0 0.0
2018-Jun-12 00:59N 45°33' W 122°42'0 0.0
2018-Jun-12 00:20N 45°33' W 122°42'0 0.0
2018-Jun-11 23:50N 45°33' W 122°42'0 0.0
2018-Jun-11 23:29N 45°33' W 122°42'0 0.0
2018-Jun-11 22:47N 45°33' W 122°42'0 0.0
2018-Jun-11 22:20N 45°33' W 122°42'0 0.0
2018-Jun-11 21:50N 45°33' W 122°42'0 0.0
2018-Jun-11 21:26N 45°33' W 122°42'0 0.0
2018-Jun-11 20:50N 45°33' W 122°42'0 0.0
2018-Jun-11 20:20N 45°33' W 122°42'0 0.0
2018-Jun-11 19:53N 45°33' W 122°42'0 0.0
2018-Jun-11 19:23N 45°33' W 122°42'0 0.0
2018-Jun-11 18:08N 45°33' W 122°42'0 0.0
2018-Jun-11 17:35N 45°33' W 122°42'0 0.0
2018-Jun-11 17:29N 45°33' W 122°42'0 0.0
2018-Jun-11 16:47N 45°33' W 122°42'0 0.0
2018-Jun-11 16:29N 45°33' W 122°42'0 0.0
2018-Jun-11 15:23N 45°33' W 122°42'0 0.0
2018-Jun-11 14:53N 45°33' W 122°42'0 0.0
2018-Jun-11 14:20N 45°33' W 122°42'0 0.0
2018-Jun-11 13:59N 45°33' W 122°42'0 0.0
2018-Jun-11 13:31N 45°33' W 122°42'2 3.3
2018-Jun-11 13:00N 45°34' W 122°44'0 0.0
2018-Jun-11 12:30N 45°34' W 122°44'1 1.0
2018-Jun-11 11:56N 45°34' W 122°45'2 5.6
2018-Jun-11 11:30N 45°36' W 122°47'3 6.3
2018-Jun-11 11:00N 45°39' W 122°46'7 7.9
2018-Jun-11 10:04N 45°47' W 122°46'1 8.1
2018-Jun-11 10:00N 45°47' W 122°47'5 7.7
2018-Jun-11 09:20N 45°52' W 122°47'3 8.1
2018-Jun-11 09:00N 45°55' W 122°49'4 7.9
2018-Jun-11 08:30N 45°59' W 122°50'4 8.3
2018-Jun-11 08:00N 46°02' W 122°53'4 7.8
2018-Jun-11 07:30N 46°06' W 122°56'4 8.4
2018-Jun-11 06:59N 46°08' W 123°01'4 8.4
2018-Jun-11 06:30N 46°10' W 123°06'4 8.0
2018-Jun-11 06:00N 46°11' W 123°12'5 8.6
2018-Jun-11 05:23N 46°09' W 123°19'614.5
2018-Jun-11 04:59N 46°11' W 123°26'3 4.6
2018-Jun-11 04:17N 46°15' W 123°26'3 8.9
2018-Jun-11 04:00N 46°16' W 123°29'5 9.2
2018-Jun-11 03:30N 46°15' W 123°35'5 9.1
2018-Jun-11 03:00N 46°15' W 123°42'5 9.6
2018-Jun-11 02:30N 46°12' W 123°48'5 9.3
2018-Jun-11 02:00N 46°11' W 123°55'4 8.8
2018-Jun-11 01:31N 46°14' W 123°59'4 6.2
2018-Jun-11 00:55N 46°15' W 124°04'3 5.6
2018-Jun-11 00:20N 46°13' W 124°08'2 6.9
2018-Jun-11 00:01N 46°12' W 124°11'3 6.9
2018-Jun-10 23:31N 46°10' W 124°15'3 6.9
2018-Jun-10 23:01N 46°07' W 124°18'3 6.7
2018-Jun-10 22:31N 46°05' W 124°21'3 6.5
2018-Jun-10 22:00N 46°02' W 124°24'4 6.6
2018-Jun-10 21:23N 45°59' W 124°27'3 7.1
2018-Jun-10 21:01N 45°57' W 124°30'4 7.4
2018-Jun-10 20:31N 45°54' W 124°32'4 7.1
2018-Jun-10 20:00N 45°50' W 124°33'4 7.3
2018-Jun-10 19:30N 45°46' W 124°34'4 7.4
2018-Jun-10 18:59N 45°43' W 124°34'3 6.6
2018-Jun-10 18:30N 45°39' W 124°35'3 6.8
2018-Jun-10 17:59N 45°36' W 124°35'  

Dump ship's entire track history